sensor_id;sensor_type;location;lat;lon;timestamp;pressure;altitude;pressure_sealevel;temperature;humidity
43257;BME280;28860;43.212;27.934;2023-07-31T00:00:35;100432.63;;;28.50;49.83
43257;BME280;28860;43.212;27.934;2023-07-31T00:03:01;100446.19;;;28.52;50.10
43257;BME280;28860;43.212;27.934;2023-07-31T00:05:26;100429.88;;;28.44;49.72
43257;BME280;28860;43.212;27.934;2023-07-31T00:07:52;100443.22;;;28.53;50.07
43257;BME280;28860;43.212;27.934;2023-07-31T00:10:19;100433.72;;;28.43;49.80
43257;BME280;28860;43.212;27.934;2023-07-31T00:12:45;100432.88;;;28.42;49.52
43257;BME280;28860;43.212;27.934;2023-07-31T00:15:11;100430.31;;;28.41;49.75
43257;BME280;28860;43.212;27.934;2023-07-31T00:17:37;100414.66;;;28.34;49.80
43257;BME280;28860;43.212;27.934;2023-07-31T00:20:03;100443.28;;;28.40;49.69
43257;BME280;28860;43.212;27.934;2023-07-31T00:22:28;100448.13;;;28.45;49.80
43257;BME280;28860;43.212;27.934;2023-07-31T00:24:56;100442.25;;;28.34;49.77
43257;BME280;28860;43.212;27.934;2023-07-31T00:27:21;100435.69;;;28.22;50.12
43257;BME280;28860;43.212;27.934;2023-07-31T00:29:47;100451.56;;;28.40;49.97
43257;BME280;28860;43.212;27.934;2023-07-31T00:32:15;100455.38;;;28.39;49.60
43257;BME280;28860;43.212;27.934;2023-07-31T00:34:41;100456.22;;;28.39;49.90
43257;BME280;28860;43.212;27.934;2023-07-31T00:37:10;100453.91;;;28.36;50.15
43257;BME280;28860;43.212;27.934;2023-07-31T00:39:35;100443.72;;;28.30;49.95
43257;BME280;28860;43.212;27.934;2023-07-31T00:42:01;100447.34;;;28.31;50.47
43257;BME280;28860;43.212;27.934;2023-07-31T00:44:27;100446.72;;;28.29;50.25
43257;BME280;28860;43.212;27.934;2023-07-31T00:46:56;100435.06;;;28.27;49.93
43257;BME280;28860;43.212;27.934;2023-07-31T00:49:24;100441.81;;;28.31;49.99
43257;BME280;28860;43.212;27.934;2023-07-31T00:51:50;100435.91;;;28.20;49.94
43257;BME280;28860;43.212;27.934;2023-07-31T00:54:16;100430.16;;;28.15;50.18
43257;BME280;28860;43.212;27.934;2023-07-31T00:56:43;100455.81;;;28.29;50.37
43257;BME280;28860;43.212;27.934;2023-07-31T00:59:10;100457.94;;;28.27;50.01
43257;BME280;28860;43.212;27.934;2023-07-31T01:01:35;100450.28;;;28.16;50.57
43257;BME280;28860;43.212;27.934;2023-07-31T01:04:01;100446.53;;;28.17;50.28
43257;BME280;28860;43.212;27.934;2023-07-31T01:06:51;100440.16;;;28.09;50.53
43257;BME280;28860;43.212;27.934;2023-07-31T01:12:03;100432.94;;;28.15;50.19
43257;BME280;28860;43.212;27.934;2023-07-31T01:14:29;100443.09;;;28.15;50.30
43257;BME280;28860;43.212;27.934;2023-07-31T01:16:55;100437.19;;;28.11;50.46
43257;BME280;28860;43.212;27.934;2023-07-31T01:19:25;100448.22;;;28.18;50.58
43257;BME280;28860;43.212;27.934;2023-07-31T01:22:16;100437.84;;;28.06;50.45
43257;BME280;28860;43.212;27.934;2023-07-31T01:27:25;100440.59;;;28.06;50.16
43257;BME280;28860;43.212;27.934;2023-07-31T01:30:03;100451.59;;;28.13;50.36
43257;BME280;28860;43.212;27.934;2023-07-31T01:32:36;100446.09;;;28.06;50.19
43257;BME280;28860;43.212;27.934;2023-07-31T01:35:05;100458.81;;;28.07;50.69
43257;BME280;28860;43.212;27.934;2023-07-31T01:37:31;100462.19;;;28.09;50.50
43257;BME280;28860;43.212;27.934;2023-07-31T01:39:57;100467.09;;;28.01;50.30
43257;BME280;28860;43.212;27.934;2023-07-31T01:42:22;100484.91;;;27.98;50.55
43257;BME280;28860;43.212;27.934;2023-07-31T01:44:48;100474.72;;;27.99;50.50
43257;BME280;28860;43.212;27.934;2023-07-31T01:47:13;100470.28;;;28.04;50.43
43257;BME280;28860;43.212;27.934;2023-07-31T01:49:42;100453.94;;;27.96;50.74
43257;BME280;28860;43.212;27.934;2023-07-31T01:52:08;100456.28;;;27.99;50.50
43257;BME280;28860;43.212;27.934;2023-07-31T01:54:33;100451.19;;;27.96;50.64
43257;BME280;28860;43.212;27.934;2023-07-31T01:56:59;100460.94;;;28.05;50.63
43257;BME280;28860;43.212;27.934;2023-07-31T01:59:25;100472.78;;;28.06;50.63
43257;BME280;28860;43.212;27.934;2023-07-31T02:01:50;100455.88;;;28.02;50.62
43257;BME280;28860;43.212;27.934;2023-07-31T02:04:16;100462.19;;;28.09;50.59
43257;BME280;28860;43.212;27.934;2023-07-31T02:06:44;100454.16;;;28.01;50.60
43257;BME280;28860;43.212;27.934;2023-07-31T02:09:10;100447.81;;;27.94;50.29
43257;BME280;28860;43.212;27.934;2023-07-31T02:11:36;100468.16;;;27.93;50.63
43257;BME280;28860;43.212;27.934;2023-07-31T02:14:01;100483.22;;;27.90;50.75
43257;BME280;28860;43.212;27.934;2023-07-31T02:16:27;100480.25;;;27.72;51.36
43257;BME280;28860;43.212;27.934;2023-07-31T02:18:53;100473.25;;;27.69;51.18
43257;BME280;28860;43.212;27.934;2023-07-31T02:21:18;100483.00;;;27.58;52.02
43257;BME280;28860;43.212;27.934;2023-07-31T02:23:44;100477.06;;;27.54;51.57
43257;BME280;28860;43.212;27.934;2023-07-31T02:26:09;100471.56;;;27.54;51.53
43257;BME280;28860;43.212;27.934;2023-07-31T02:28:35;100462.22;;;27.49;51.23
43257;BME280;28860;43.212;27.934;2023-07-31T02:31:04;100471.53;;;27.41;51.89
43257;BME280;28860;43.212;27.934;2023-07-31T02:33:29;100465.19;;;27.47;51.36
43257;BME280;28860;43.212;27.934;2023-07-31T02:35:55;100464.75;;;27.50;51.46
43257;BME280;28860;43.212;27.934;2023-07-31T02:38:21;100468.19;;;27.52;51.50
43257;BME280;28860;43.212;27.934;2023-07-31T02:40:46;100469.88;;;27.53;51.34
43257;BME280;28860;43.212;27.934;2023-07-31T02:43:15;100473.25;;;27.55;51.25
43257;BME280;28860;43.212;27.934;2023-07-31T02:45:41;100460.94;;;27.45;51.45
43257;BME280;28860;43.212;27.934;2023-07-31T02:48:06;100484.50;;;27.61;51.44
43257;BME280;28860;43.212;27.934;2023-07-31T02:50:32;100447.59;;;27.48;51.42
43257;BME280;28860;43.212;27.934;2023-07-31T02:52:58;100450.81;;;27.59;51.47
43257;BME280;28860;43.212;27.934;2023-07-31T02:55:24;100463.53;;;27.60;51.18
43257;BME280;28860;43.212;27.934;2023-07-31T02:57:50;100461.84;;;27.59;51.23
43257;BME280;28860;43.212;27.934;2023-07-31T03:00:17;100474.75;;;27.58;51.18
43257;BME280;28860;43.212;27.934;2023-07-31T03:02:46;100475.38;;;27.67;51.24
43257;BME280;28860;43.212;27.934;2023-07-31T03:05:11;100472.84;;;27.59;51.24
43257;BME280;28860;43.212;27.934;2023-07-31T03:07:39;100467.34;;;27.59;51.19
43257;BME280;28860;43.212;27.934;2023-07-31T03:10:05;100474.13;;;27.63;51.09
43257;BME280;28860;43.212;27.934;2023-07-31T03:12:31;100484.72;;;27.66;50.86
43257;BME280;28860;43.212;27.934;2023-07-31T03:14:57;100467.97;;;27.61;50.57
43257;BME280;28860;43.212;27.934;2023-07-31T03:17:28;100476.69;;;27.58;50.65
43257;BME280;28860;43.212;27.934;2023-07-31T03:19:53;100480.88;;;27.53;50.54
43257;BME280;28860;43.212;27.934;2023-07-31T03:22:19;100492.75;;;27.54;50.84
43257;BME280;28860;43.212;27.934;2023-07-31T03:24:45;100494.22;;;27.57;50.78
43257;BME280;28860;43.212;27.934;2023-07-31T03:27:10;100476.00;;;27.55;50.48
43257;BME280;28860;43.212;27.934;2023-07-31T03:29:36;100489.78;;;27.69;50.25
43257;BME280;28860;43.212;27.934;2023-07-31T03:32:02;100476.66;;;27.64;50.39
43257;BME280;28860;43.212;27.934;2023-07-31T03:34:27;100479.19;;;27.66;49.86
43257;BME280;28860;43.212;27.934;2023-07-31T03:36:53;100475.81;;;27.71;50.17
43257;BME280;28860;43.212;27.934;2023-07-31T03:39:19;100485.97;;;27.77;50.27
43257;BME280;28860;43.212;27.934;2023-07-31T03:41:44;100484.72;;;27.79;50.34
43257;BME280;28860;43.212;27.934;2023-07-31T03:44:10;100475.81;;;27.77;50.30
43257;BME280;28860;43.212;27.934;2023-07-31T03:46:39;100480.88;;;27.80;50.00
43257;BME280;28860;43.212;27.934;2023-07-31T03:49:04;100489.34;;;27.86;50.02
43257;BME280;28860;43.212;27.934;2023-07-31T03:51:30;100488.94;;;27.89;50.01
43257;BME280;28860;43.212;27.934;2023-07-31T03:53:56;100486.81;;;27.91;49.96
43257;BME280;28860;43.212;27.934;2023-07-31T03:56:21;100492.09;;;27.92;50.41
43257;BME280;28860;43.212;27.934;2023-07-31T03:58:47;100491.91;;;27.94;49.91
43257;BME280;28860;43.212;27.934;2023-07-31T04:01:13;100467.31;;;27.86;49.96
43257;BME280;28860;43.212;27.934;2023-07-31T04:03:39;100479.63;;;27.96;49.86
43257;BME280;28860;43.212;27.934;2023-07-31T04:06:04;100476.63;;;27.85;49.91
43257;BME280;28860;43.212;27.934;2023-07-31T04:08:32;100485.97;;;27.97;49.94
43257;BME280;28860;43.212;27.934;2023-07-31T04:10:57;100484.25;;;27.96;50.14
43257;BME280;28860;43.212;27.934;2023-07-31T04:13:23;100475.56;;;27.92;49.99
43257;BME280;28860;43.212;27.934;2023-07-31T04:15:49;100477.94;;;27.89;50.05
43257;BME280;28860;43.212;27.934;2023-07-31T04:18:22;100496.97;;;27.97;50.17
43257;BME280;28860;43.212;27.934;2023-07-31T04:20:47;100487.66;;;27.85;50.46
43257;BME280;28860;43.212;27.934;2023-07-31T04:23:13;100486.38;;;27.94;50.52
43257;BME280;28860;43.212;27.934;2023-07-31T04:25:39;100486.38;;;27.94;50.20
43257;BME280;28860;43.212;27.934;2023-07-31T04:28:04;100466.03;;;27.95;50.39
43257;BME280;28860;43.212;27.934;2023-07-31T04:30:33;100485.75;;;28.05;50.39
43257;BME280;28860;43.212;27.934;2023-07-31T04:33:01;100463.91;;;27.90;50.42
43257;BME280;28860;43.212;27.934;2023-07-31T04:35:30;100492.72;;;28.08;50.50
43257;BME280;28860;43.212;27.934;2023-07-31T04:37:55;100474.09;;;27.96;50.11
43257;BME280;28860;43.212;27.934;2023-07-31T04:40:21;100485.75;;;27.99;50.36
43257;BME280;28860;43.212;27.934;2023-07-31T04:42:47;100494.44;;;28.02;50.21
43257;BME280;28860;43.212;27.934;2023-07-31T04:45:12;100504.81;;;28.07;50.33
43257;BME280;28860;43.212;27.934;2023-07-31T04:47:38;100502.47;;;28.10;50.36
43257;BME280;28860;43.212;27.934;2023-07-31T04:50:04;100500.34;;;28.06;50.14
43257;BME280;28860;43.212;27.934;2023-07-31T04:52:30;100501.66;;;28.03;50.35
43257;BME280;28860;43.212;27.934;2023-07-31T04:54:55;100514.75;;;28.15;50.17
43257;BME280;28860;43.212;27.934;2023-07-31T04:57:21;100513.06;;;28.14;50.16
43257;BME280;28860;43.212;27.934;2023-07-31T04:59:49;100504.16;;;28.11;50.06
43257;BME280;28860;43.212;27.934;2023-07-31T05:02:15;100510.75;;;28.10;49.53
43257;BME280;28860;43.212;27.934;2023-07-31T05:04:41;100520.72;;;28.11;50.08
43257;BME280;28860;43.212;27.934;2023-07-31T05:07:06;100520.50;;;28.13;50.20
43257;BME280;28860;43.212;27.934;2023-07-31T05:09:35;100519.88;;;28.11;50.32
43257;BME280;28860;43.212;27.934;2023-07-31T05:12:01;100519.88;;;28.11;50.24
43257;BME280;28860;43.212;27.934;2023-07-31T05:14:27;100518.41;;;27.95;50.52
43257;BME280;28860;43.212;27.934;2023-07-31T05:16:52;100502.50;;;27.97;50.27
43257;BME280;28860;43.212;27.934;2023-07-31T05:19:18;100535.13;;;28.07;50.16
43257;BME280;28860;43.212;27.934;2023-07-31T05:21:44;100521.34;;;28.14;49.88
43257;BME280;28860;43.212;27.934;2023-07-31T05:24:10;100498.66;;;28.11;49.32
43257;BME280;28860;43.212;27.934;2023-07-31T05:26:38;100503.72;;;28.15;49.67
43257;BME280;28860;43.212;27.934;2023-07-31T05:29:04;100515.63;;;28.15;49.45
43257;BME280;28860;43.212;27.934;2023-07-31T05:31:29;100514.16;;;28.26;49.11
43257;BME280;28860;43.212;27.934;2023-07-31T05:33:58;100528.09;;;28.38;49.00
43257;BME280;28860;43.212;27.934;2023-07-31T05:36:27;100507.56;;;28.14;49.08
43257;BME280;28860;43.212;27.934;2023-07-31T05:38:52;100523.66;;;28.37;48.74
43257;BME280;28860;43.212;27.934;2023-07-31T05:41:18;100529.16;;;28.44;48.99
43257;BME280;28860;43.212;27.934;2023-07-31T05:43:44;100530.47;;;28.34;48.66
43257;BME280;28860;43.212;27.934;2023-07-31T05:46:09;100534.28;;;28.33;48.48
43257;BME280;28860;43.212;27.934;2023-07-31T05:48:39;100523.88;;;28.42;48.07
43257;BME280;28860;43.212;27.934;2023-07-31T05:51:05;100524.09;;;28.41;47.95
43257;BME280;28860;43.212;27.934;2023-07-31T05:53:34;100526.81;;;28.54;48.26
43257;BME280;28860;43.212;27.934;2023-07-31T05:56:03;100525.31;;;28.51;48.18
43257;BME280;28860;43.212;27.934;2023-07-31T05:58:31;100527.00;;;28.59;47.81
43257;BME280;28860;43.212;27.934;2023-07-31T06:00:57;100526.19;;;28.52;48.16
43257;BME280;28860;43.212;27.934;2023-07-31T06:03:26;100537.78;;;28.67;47.91
43257;BME280;28860;43.212;27.934;2023-07-31T06:05:51;100522.75;;;28.63;47.60
43257;BME280;28860;43.212;27.934;2023-07-31T06:08:17;100532.44;;;28.79;47.16
43257;BME280;28860;43.212;27.934;2023-07-31T06:10:45;100529.50;;;28.81;47.40
43257;BME280;28860;43.212;27.934;2023-07-31T06:13:10;100531.66;;;28.65;47.87
43257;BME280;28860;43.212;27.934;2023-07-31T06:15:37;100526.53;;;28.76;47.50
43257;BME280;28860;43.212;27.934;2023-07-31T06:18:03;100542.66;;;28.86;47.88
43257;BME280;28860;43.212;27.934;2023-07-31T06:20:32;100554.94;;;28.90;47.75
43257;BME280;28860;43.212;27.934;2023-07-31T06:23:00;100547.53;;;28.90;48.29
43257;BME280;28860;43.212;27.934;2023-07-31T06:25:26;100537.09;;;28.92;47.69
43257;BME280;28860;43.212;27.934;2023-07-31T06:27:52;100536.66;;;28.95;47.45
43257;BME280;28860;43.212;27.934;2023-07-31T06:30:17;100545.94;;;29.08;47.29
43257;BME280;28860;43.212;27.934;2023-07-31T06:32:43;100562.31;;;29.03;47.40
43257;BME280;28860;43.212;27.934;2023-07-31T06:35:08;100554.69;;;28.98;46.97
43257;BME280;28860;43.212;27.934;2023-07-31T06:37:34;100552.72;;;29.12;46.59
43257;BME280;28860;43.212;27.934;2023-07-31T06:40:00;100554.34;;;28.81;46.75
43257;BME280;28860;43.212;27.934;2023-07-31T06:42:25;100553.22;;;28.95;46.30
43257;BME280;28860;43.212;27.934;2023-07-31T06:44:56;100565.16;;;28.83;46.67
43257;BME280;28860;43.212;27.934;2023-07-31T06:47:23;100546.94;;;28.68;46.49
43257;BME280;28860;43.212;27.934;2023-07-31T06:49:49;100541.78;;;28.78;46.23
43257;BME280;28860;43.212;27.934;2023-07-31T06:52:15;100551.56;;;28.81;46.15
43257;BME280;28860;43.212;27.934;2023-07-31T06:54:40;100549.06;;;28.59;46.88
43257;BME280;28860;43.212;27.934;2023-07-31T06:57:08;100551.41;;;28.62;46.30
43257;BME280;28860;43.212;27.934;2023-07-31T06:59:35;100553.06;;;28.70;46.74
43257;BME280;28860;43.212;27.934;2023-07-31T07:02:00;100559.25;;;28.65;46.74
43257;BME280;28860;43.212;27.934;2023-07-31T07:04:29;100555.44;;;28.53;46.86
43257;BME280;28860;43.212;27.934;2023-07-31T07:06:57;100535.91;;;28.61;46.12
43257;BME280;28860;43.212;27.934;2023-07-31T07:09:23;100555.81;;;28.90;46.20
43257;BME280;28860;43.212;27.934;2023-07-31T07:11:59;100551.53;;;28.94;45.90
43257;BME280;28860;43.212;27.934;2023-07-31T07:14:48;100554.28;;;28.94;45.66
43257;BME280;28860;43.212;27.934;2023-07-31T07:17:13;100551.47;;;29.08;45.24
43257;BME280;28860;43.212;27.934;2023-07-31T07:19:42;100553.53;;;29.19;45.50
43257;BME280;28860;43.212;27.934;2023-07-31T07:22:08;100544.59;;;29.17;44.89
43257;BME280;28860;43.212;27.934;2023-07-31T07:24:33;100553.97;;;29.16;45.41
43257;BME280;28860;43.212;27.934;2023-07-31T07:26:59;100536.56;;;29.16;45.07
43257;BME280;28860;43.212;27.934;2023-07-31T07:29:25;100554.28;;;29.33;45.02
43257;BME280;28860;43.212;27.934;2023-07-31T07:31:50;100545.34;;;29.38;44.91
43257;BME280;28860;43.212;27.934;2023-07-31T07:34:16;100548.03;;;29.19;45.27
43257;BME280;28860;43.212;27.934;2023-07-31T07:36:42;100546.63;;;29.42;44.70
43257;BME280;28860;43.212;27.934;2023-07-31T07:39:09;100543.34;;;29.13;44.93
43257;BME280;28860;43.212;27.934;2023-07-31T07:41:35;100537.31;;;29.30;44.69
43257;BME280;28860;43.212;27.934;2023-07-31T07:44:00;100555.91;;;29.55;44.35
43257;BME280;28860;43.212;27.934;2023-07-31T07:46:29;100552.50;;;29.52;44.21
43257;BME280;28860;43.212;27.934;2023-07-31T07:48:55;100557.03;;;29.72;43.74
43257;BME280;28860;43.212;27.934;2023-07-31T07:51:20;100558.22;;;29.58;44.25
43257;BME280;28860;43.212;27.934;2023-07-31T07:53:46;100533.78;;;29.55;43.55
43257;BME280;28860;43.212;27.934;2023-07-31T07:56:14;100550.38;;;29.80;43.55
43257;BME280;28860;43.212;27.934;2023-07-31T07:58:39;100541.59;;;29.90;43.49
43257;BME280;28860;43.212;27.934;2023-07-31T08:01:05;100542.34;;;29.78;43.86
43257;BME280;28860;43.212;27.934;2023-07-31T08:03:31;100540.81;;;29.83;44.16
43257;BME280;28860;43.212;27.934;2023-07-31T08:06:00;100541.50;;;30.03;43.78
43257;BME280;28860;43.212;27.934;2023-07-31T08:08:26;100546.91;;;30.17;43.80
43257;BME280;28860;43.212;27.934;2023-07-31T08:10:51;100555.06;;;30.12;43.97
43257;BME280;28860;43.212;27.934;2023-07-31T08:13:17;100557.09;;;30.23;43.53
43257;BME280;28860;43.212;27.934;2023-07-31T08:15:45;100554.78;;;30.39;42.39
43257;BME280;28860;43.212;27.934;2023-07-31T08:18:11;100553.25;;;30.24;41.74
43257;BME280;28860;43.212;27.934;2023-07-31T08:20:39;100560.75;;;30.35;41.14
43257;BME280;28860;43.212;27.934;2023-07-31T08:23:10;100535.50;;;30.06;40.46
43257;BME280;28860;43.212;27.934;2023-07-31T08:25:38;100540.63;;;30.28;41.07
43257;BME280;28860;43.212;27.934;2023-07-31T08:28:05;100543.59;;;30.52;40.60
43257;BME280;28860;43.212;27.934;2023-07-31T08:30:34;100544.81;;;30.56;42.67
43257;BME280;28860;43.212;27.934;2023-07-31T08:33:00;100563.13;;;30.76;43.36
43257;BME280;28860;43.212;27.934;2023-07-31T08:35:26;100548.53;;;30.69;44.44
43257;BME280;28860;43.212;27.934;2023-07-31T08:37:53;100549.75;;;30.73;44.13
43257;BME280;28860;43.212;27.934;2023-07-31T08:40:19;100560.88;;;30.85;44.04
43257;BME280;28860;43.212;27.934;2023-07-31T08:42:48;100559.44;;;30.82;43.37
43257;BME280;28860;43.212;27.934;2023-07-31T08:45:18;100558.13;;;30.85;42.35
43257;BME280;28860;43.212;27.934;2023-07-31T08:47:46;100540.38;;;30.74;42.33
43257;BME280;28860;43.212;27.934;2023-07-31T08:50:13;100543.84;;;30.69;42.98
43257;BME280;28860;43.212;27.934;2023-07-31T08:52:54;100567.75;;;30.82;42.71
43257;BME280;28860;43.212;27.934;2023-07-31T08:55:24;100566.50;;;30.78;43.28
43257;BME280;28860;43.212;27.934;2023-07-31T08:58:26;100551.13;;;30.63;43.28
43257;BME280;28860;43.212;27.934;2023-07-31T09:00:57;100543.72;;;30.57;42.98
43257;BME280;28860;43.212;27.934;2023-07-31T09:03:25;100562.19;;;30.63;42.87
43257;BME280;28860;43.212;27.934;2023-07-31T09:06:07;100536.81;;;30.48;42.62
43257;BME280;28860;43.212;27.934;2023-07-31T09:08:40;100557.56;;;30.57;42.72
43257;BME280;28860;43.212;27.934;2023-07-31T09:17:41;100564.41;;;30.55;42.45
43257;BME280;28860;43.212;27.934;2023-07-31T09:20:29;100575.41;;;30.61;43.39
43257;BME280;28860;43.212;27.934;2023-07-31T09:23:14;100558.03;;;30.54;43.24
43257;BME280;28860;43.212;27.934;2023-07-31T09:26:16;100568.59;;;30.64;42.88
43257;BME280;28860;43.212;27.934;2023-07-31T09:31:38;100579.22;;;30.60;43.29
43257;BME280;28860;43.212;27.934;2023-07-31T09:34:07;100581.78;;;30.62;43.05
43257;BME280;28860;43.212;27.934;2023-07-31T09:36:44;100590.66;;;30.71;43.16
43257;BME280;28860;43.212;27.934;2023-07-31T09:39:11;100571.13;;;30.66;42.58
43257;BME280;28860;43.212;27.934;2023-07-31T09:41:54;100557.59;;;30.76;42.47
43257;BME280;28860;43.212;27.934;2023-07-31T09:44:20;100563.25;;;30.81;42.61
43257;BME280;28860;43.212;27.934;2023-07-31T09:46:46;100561.06;;;30.90;42.46
43257;BME280;28860;43.212;27.934;2023-07-31T09:49:13;100572.31;;;31.07;42.52
43257;BME280;28860;43.212;27.934;2023-07-31T09:51:41;100546.31;;;31.08;42.94
43257;BME280;28860;43.212;27.934;2023-07-31T09:54:11;100559.94;;;31.28;42.75
43257;BME280;28860;43.212;27.934;2023-07-31T09:56:48;100570.13;;;31.46;42.40
43257;BME280;28860;43.212;27.934;2023-07-31T09:59:20;100554.66;;;31.27;43.03
43257;BME280;28860;43.212;27.934;2023-07-31T10:01:46;100568.44;;;31.45;42.72
43257;BME280;28860;43.212;27.934;2023-07-31T10:04:15;100553.97;;;31.43;42.51
43257;BME280;28860;43.212;27.934;2023-07-31T10:06:46;100550.22;;;31.38;42.10
43257;BME280;28860;43.212;27.934;2023-07-31T10:09:15;100553.59;;;31.40;42.58
43257;BME280;28860;43.212;27.934;2023-07-31T10:11:50;100574.69;;;31.53;42.20
43257;BME280;28860;43.212;27.934;2023-07-31T10:14:24;100557.06;;;31.35;39.27
43257;BME280;28860;43.212;27.934;2023-07-31T10:16:52;100555.19;;;31.47;39.94
43257;BME280;28860;43.212;27.934;2023-07-31T10:19:21;100567.84;;;31.55;41.23
43257;BME280;28860;43.212;27.934;2023-07-31T10:21:48;100569.59;;;31.38;40.77
43257;BME280;28860;43.212;27.934;2023-07-31T10:24:16;100568.78;;;31.18;39.75
43257;BME280;28860;43.212;27.934;2023-07-31T10:26:45;100557.56;;;30.95;39.66
43257;BME280;28860;43.212;27.934;2023-07-31T10:29:11;100562.19;;;31.01;38.99
43257;BME280;28860;43.212;27.934;2023-07-31T10:31:40;100567.56;;;31.14;38.89
43257;BME280;28860;43.212;27.934;2023-07-31T10:34:06;100559.16;;;31.02;39.12
43257;BME280;28860;43.212;27.934;2023-07-31T10:36:36;100562.91;;;30.33;40.02
43257;BME280;28860;43.212;27.934;2023-07-31T10:39:36;100558.34;;;30.64;39.95
43257;BME280;28860;43.212;27.934;2023-07-31T10:42:12;100555.28;;;30.73;39.88
43257;BME280;28860;43.212;27.934;2023-07-31T10:44:38;100562.94;;;31.08;39.42
43257;BME280;28860;43.212;27.934;2023-07-31T10:47:10;100566.66;;;31.02;39.10
43257;BME280;28860;43.212;27.934;2023-07-31T10:49:38;100558.03;;;30.91;39.19
43257;BME280;28860;43.212;27.934;2023-07-31T10:52:04;100564.75;;;30.65;39.46
43257;BME280;28860;43.212;27.934;2023-07-31T10:54:35;100574.63;;;31.10;38.65
43257;BME280;28860;43.212;27.934;2023-07-31T10:57:21;100556.50;;;31.45;38.39
43257;BME280;28860;43.212;27.934;2023-07-31T10:59:48;100553.69;;;31.33;38.24
43257;BME280;28860;43.212;27.934;2023-07-31T11:02:26;100554.22;;;31.54;37.85
43257;BME280;28860;43.212;27.934;2023-07-31T11:05:11;100558.84;;;31.60;37.88
43257;BME280;28860;43.212;27.934;2023-07-31T11:07:49;100550.69;;;31.34;38.18
43257;BME280;28860;43.212;27.934;2023-07-31T11:10:18;100554.22;;;31.54;38.26
43257;BME280;28860;43.212;27.934;2023-07-31T11:12:46;100550.91;;;30.84;39.10
43257;BME280;28860;43.212;27.934;2023-07-31T11:15:12;100554.97;;;30.62;39.96
43257;BME280;28860;43.212;27.934;2023-07-31T11:17:39;100547.81;;;30.92;39.43
43257;BME280;28860;43.212;27.934;2023-07-31T11:20:13;100542.94;;;31.06;39.00
43257;BME280;28860;43.212;27.934;2023-07-31T11:22:51;100544.38;;;30.97;38.87
43257;BME280;28860;43.212;27.934;2023-07-31T11:25:18;100545.03;;;31.11;38.71
43257;BME280;28860;43.212;27.934;2023-07-31T11:27:43;100527.47;;;30.68;39.69
43257;BME280;28860;43.212;27.934;2023-07-31T11:30:10;100539.09;;;30.32;40.44
43257;BME280;28860;43.212;27.934;2023-07-31T11:32:37;100521.59;;;30.57;39.47
43257;BME280;28860;43.212;27.934;2023-07-31T11:35:02;100531.91;;;30.87;39.40
43257;BME280;28860;43.212;27.934;2023-07-31T11:37:41;100517.28;;;30.80;39.25
43257;BME280;28860;43.212;27.934;2023-07-31T11:40:10;100524.53;;;30.81;38.83
43257;BME280;28860;43.212;27.934;2023-07-31T11:42:36;100528.16;;;30.82;38.89
43257;BME280;28860;43.212;27.934;2023-07-31T11:45:06;100502.63;;;30.61;39.29
43257;BME280;28860;43.212;27.934;2023-07-31T11:47:36;100513.38;;;30.88;38.89
43257;BME280;28860;43.212;27.934;2023-07-31T11:50:03;100507.56;;;30.77;39.82
43257;BME280;28860;43.212;27.934;2023-07-31T11:52:32;100531.56;;;30.96;39.88
43257;BME280;28860;43.212;27.934;2023-07-31T11:55:02;100510.09;;;31.10;39.20
43257;BME280;28860;43.212;27.934;2023-07-31T11:57:28;100528.16;;;31.31;39.39
43257;BME280;28860;43.212;27.934;2023-07-31T11:59:55;100521.66;;;31.37;39.42
43257;BME280;28860;43.212;27.934;2023-07-31T12:02:25;100509.09;;;31.23;39.50
43257;BME280;28860;43.212;27.934;2023-07-31T12:04:53;100524.34;;;30.95;39.60
43257;BME280;28860;43.212;27.934;2023-07-31T12:07:21;100532.69;;;30.76;40.51
43257;BME280;28860;43.212;27.934;2023-07-31T12:09:54;100505.88;;;30.76;40.19
43257;BME280;28860;43.212;27.934;2023-07-31T12:12:21;100509.94;;;30.55;40.88
43257;BME280;28860;43.212;27.934;2023-07-31T12:14:47;100527.16;;;30.76;40.47
43257;BME280;28860;43.212;27.934;2023-07-31T12:17:14;100510.25;;;30.66;40.75
43257;BME280;28860;43.212;27.934;2023-07-31T12:19:40;100506.09;;;30.75;40.60
43257;BME280;28860;43.212;27.934;2023-07-31T12:22:15;100506.22;;;30.80;40.64
43257;BME280;28860;43.212;27.934;2023-07-31T12:24:44;100499.09;;;30.72;41.28
43257;BME280;28860;43.212;27.934;2023-07-31T12:27:14;100489.63;;;30.80;40.77
43257;BME280;28860;43.212;27.934;2023-07-31T12:29:42;100499.94;;;30.54;41.89
43257;BME280;28860;43.212;27.934;2023-07-31T12:32:24;100493.69;;;30.59;41.60
43257;BME280;28860;43.212;27.934;2023-07-31T12:34:59;100497.16;;;30.35;43.61
43257;BME280;28860;43.212;27.934;2023-07-31T12:37:25;100503.59;;;30.11;44.88
43257;BME280;28860;43.212;27.934;2023-07-31T12:39:50;100501.59;;;30.18;45.16
43257;BME280;28860;43.212;27.934;2023-07-31T12:42:17;100497.88;;;30.05;45.90
43257;BME280;28860;43.212;27.934;2023-07-31T12:44:47;100484.72;;;30.26;45.79
43257;BME280;28860;43.212;27.934;2023-07-31T12:47:13;100506.22;;;30.43;45.50
43257;BME280;28860;43.212;27.934;2023-07-31T12:49:40;100499.47;;;30.39;44.36
43257;BME280;28860;43.212;27.934;2023-07-31T12:52:06;100480.34;;;30.37;44.61
43257;BME280;28860;43.212;27.934;2023-07-31T12:54:31;100481.63;;;30.34;44.50
43257;BME280;28860;43.212;27.934;2023-07-31T12:56:57;100490.78;;;30.54;43.74
43257;BME280;28860;43.212;27.934;2023-07-31T12:59:25;100490.84;;;30.47;42.87